createdAt,value
2024-04-13T00:01:55.264Z,14.44
2024-04-13T00:04:25.323Z,14.43
2024-04-13T00:06:52.267Z,14.45
2024-04-13T00:09:19.601Z,14.41
2024-04-13T00:11:46.294Z,14.40
2024-04-13T00:14:12.956Z,14.38
2024-04-13T00:16:39.994Z,14.39
2024-04-13T00:19:06.668Z,14.48
2024-04-13T00:21:33.390Z,14.49
2024-04-13T00:24:00.182Z,14.49
2024-04-13T00:26:28.679Z,14.47
2024-04-13T00:28:55.574Z,14.51
2024-04-13T00:31:22.382Z,14.49
2024-04-13T00:33:49.284Z,14.46
2024-04-13T00:36:15.980Z,14.51
2024-04-13T00:38:42.772Z,14.47
2024-04-13T00:41:09.539Z,14.40
2024-04-13T00:43:36.637Z,14.34
2024-04-13T00:46:09.398Z,14.27
2024-04-13T00:48:38.307Z,14.20
2024-04-13T00:51:06.442Z,14.23
2024-04-13T00:53:35.203Z,14.24
2024-04-13T00:56:02.912Z,14.26
2024-04-13T00:58:30.690Z,14.25
2024-04-13T01:00:58.297Z,14.19
2024-04-13T01:03:29.387Z,14.17
2024-04-13T01:05:59.677Z,14.17
2024-04-13T01:08:29.305Z,14.19
2024-04-13T01:10:59.160Z,14.14
2024-04-13T01:13:27.561Z,14.15
2024-04-13T01:15:54.110Z,14.07
2024-04-13T01:18:21.220Z,14.08
2024-04-13T01:20:48.352Z,14.05
2024-04-13T01:23:16.254Z,14.03
2024-04-13T01:25:43.488Z,13.99
2024-04-13T01:28:11.258Z,13.91
2024-04-13T01:30:38.253Z,13.92
2024-04-13T01:33:05.353Z,13.87
2024-04-13T01:35:32.367Z,13.78
2024-04-13T01:37:59.070Z,13.74
2024-04-13T01:40:25.718Z,13.68
2024-04-13T01:42:52.675Z,13.72
2024-04-13T01:45:19.620Z,13.67
2024-04-13T01:47:46.531Z,13.65
2024-04-13T01:50:14.129Z,13.60
2024-04-13T01:52:41.244Z,13.62
2024-04-13T01:55:08.161Z,13.55
2024-04-13T01:57:35.208Z,13.51
2024-04-13T02:00:02.294Z,13.46
2024-04-13T02:02:29.191Z,13.44
2024-04-13T02:04:55.883Z,13.42
2024-04-13T02:07:23.583Z,13.31
2024-04-13T02:09:50.268Z,13.31
2024-04-13T02:12:16.933Z,13.28
2024-04-13T02:14:43.976Z,13.20
2024-04-13T02:17:11.092Z,13.22
2024-04-13T02:19:37.755Z,13.18
2024-04-13T02:22:04.673Z,13.12
2024-04-13T02:24:31.375Z,13.10
2024-04-13T02:26:58.617Z,13.09
2024-04-13T02:29:26.855Z,13.05
2024-04-13T02:31:53.839Z,13.01
2024-04-13T02:34:21.036Z,12.97
2024-04-13T02:36:48.427Z,12.94
2024-04-13T02:39:16.941Z,12.88
2024-04-13T02:41:43.697Z,12.94
2024-04-13T02:44:10.330Z,12.85
2024-04-13T02:46:37.051Z,12.89
2024-04-13T02:49:04.114Z,12.86
2024-04-13T02:51:31.586Z,12.85
2024-04-13T02:53:58.586Z,12.83
2024-04-13T02:56:25.553Z,12.84
2024-04-13T02:58:52.406Z,12.84
2024-04-13T03:01:20.242Z,12.81
2024-04-13T03:03:47.790Z,12.76
2024-04-13T03:06:15.365Z,12.76
2024-04-13T03:08:43.145Z,12.76
2024-04-13T03:11:10.521Z,12.78
2024-04-13T03:13:38.706Z,12.84
2024-04-13T03:16:08.003Z,12.87
2024-04-13T03:18:35.293Z,12.84
2024-04-13T03:21:02.224Z,12.83
2024-04-13T03:23:30.196Z,12.82
2024-04-13T03:25:56.844Z,12.80
2024-04-13T03:28:27.202Z,12.80
2024-04-13T03:30:54.012Z,12.82
2024-04-13T03:33:20.708Z,12.86
2024-04-13T03:35:47.379Z,12.85
2024-04-13T03:38:14.586Z,12.82
2024-04-13T03:40:41.358Z,12.89
2024-04-13T03:43:08.352Z,12.86
2024-04-13T03:45:35.354Z,12.89
2024-04-13T03:48:02.097Z,12.85
2024-04-13T03:50:28.786Z,12.89
2024-04-13T03:52:55.430Z,12.87
2024-04-13T03:55:22.070Z,12.84
2024-04-13T03:57:48.956Z,12.80
2024-04-13T04:00:16.116Z,12.81
2024-04-13T04:02:42.775Z,12.84
2024-04-13T04:05:09.461Z,12.79
2024-04-13T04:07:36.186Z,12.86
2024-04-13T04:10:02.828Z,12.83
2024-04-13T04:12:29.517Z,12.83
2024-04-13T04:14:56.213Z,12.80
2024-04-13T04:17:22.957Z,12.77
2024-04-13T04:19:49.608Z,12.80
2024-04-13T04:22:16.305Z,12.82
2024-04-13T04:24:43.045Z,12.82
2024-04-13T04:27:10.535Z,12.80
2024-04-13T04:29:37.779Z,12.83
2024-04-13T04:32:04.698Z,12.74
2024-04-13T04:34:31.460Z,12.76
2024-04-13T04:36:58.134Z,12.80
2024-04-13T04:39:24.863Z,12.77
2024-04-13T04:41:52.465Z,12.83
2024-04-13T04:44:19.308Z,12.87
2024-04-13T04:46:46.964Z,12.92
2024-04-13T04:49:13.999Z,12.93
2024-04-13T04:51:42.149Z,12.89
2024-04-13T04:54:11.756Z,12.89
2024-04-13T04:56:38.523Z,12.91
2024-04-13T04:59:05.699Z,12.95
2024-04-13T05:01:32.449Z,12.93
2024-04-13T05:03:59.302Z,12.95
2024-04-13T05:06:26.061Z,13.00
2024-04-13T05:08:52.825Z,12.98
2024-04-13T05:11:19.540Z,13.04
2024-04-13T05:13:46.252Z,12.94
2024-04-13T05:16:12.907Z,12.91
2024-04-13T05:18:39.745Z,12.78
2024-04-13T05:21:06.713Z,12.68
2024-04-13T05:23:33.929Z,12.69
2024-04-13T05:26:00.844Z,12.75
2024-04-13T05:28:28.063Z,12.78
2024-04-13T05:30:58.246Z,12.81
2024-04-13T05:33:25.870Z,12.85
2024-04-13T05:35:52.852Z,12.80
2024-04-13T05:38:19.633Z,12.91
2024-04-13T05:40:46.745Z,12.91
2024-04-13T05:43:13.735Z,12.97
2024-04-13T05:45:40.698Z,12.97
2024-04-13T05:48:08.092Z,12.98
2024-04-13T05:50:35.149Z,12.99
2024-04-13T05:53:01.866Z,13.04
2024-04-13T05:55:28.602Z,13.09
2024-04-13T05:57:55.274Z,13.20
2024-04-13T06:00:23.199Z,13.19
2024-04-13T06:02:53.253Z,13.26
2024-04-13T06:05:20.042Z,13.22
2024-04-13T06:07:46.787Z,13.29
2024-04-13T06:10:13.551Z,13.28
2024-04-13T06:12:40.392Z,13.29
2024-04-13T06:15:07.516Z,13.38
2024-04-13T06:17:34.256Z,13.38
2024-04-13T06:20:00.972Z,13.48
2024-04-13T06:22:27.692Z,13.43
2024-04-13T06:24:54.387Z,13.59
2024-04-13T06:27:21.077Z,13.51
2024-04-13T06:29:49.793Z,13.54
2024-04-13T06:32:17.037Z,13.58
2024-04-13T06:34:43.865Z,13.69
2024-04-13T06:37:12.796Z,13.74
2024-04-13T06:39:39.529Z,13.77
2024-04-13T06:42:06.617Z,13.76
2024-04-13T06:44:33.807Z,13.95
2024-04-13T06:47:00.499Z,13.96
2024-04-13T06:49:27.260Z,14.15
2024-04-13T06:51:54.151Z,14.16
2024-04-13T06:54:20.927Z,14.17
2024-04-13T06:56:47.620Z,14.29
2024-04-13T06:59:14.287Z,14.27
2024-04-13T07:01:41.013Z,14.16
2024-04-13T07:04:07.824Z,14.17
2024-04-13T07:06:41.074Z,13.97
2024-04-13T07:09:07.785Z,14.17
2024-04-13T07:11:34.442Z,14.15
2024-04-13T07:14:01.091Z,14.27
2024-04-13T07:16:27.757Z,14.20
2024-04-13T07:18:54.524Z,14.49
2024-04-13T07:21:21.295Z,14.60
2024-04-13T07:23:49.355Z,14.70
2024-04-13T07:26:16.071Z,14.71
2024-04-13T07:28:42.787Z,14.69
2024-04-13T07:31:09.436Z,14.91
2024-04-13T07:33:36.208Z,14.94
2024-04-13T07:36:03.096Z,14.99
2024-04-13T07:38:29.895Z,15.13
2024-04-13T07:40:56.516Z,15.21
2024-04-13T07:43:24.039Z,15.23
2024-04-13T07:45:53.322Z,15.24
2024-04-13T07:48:20.236Z,15.44
2024-04-13T07:50:47.115Z,15.49
2024-04-13T07:53:13.741Z,15.51
2024-04-13T07:55:40.365Z,15.65
2024-04-13T07:58:07.066Z,15.80
2024-04-13T08:00:33.935Z,15.88
2024-04-13T08:03:00.707Z,15.90
2024-04-13T08:05:27.375Z,15.80
2024-04-13T08:07:54.095Z,15.93
2024-04-13T08:10:21.042Z,16.03
2024-04-13T08:12:47.881Z,16.24
2024-04-13T08:15:14.609Z,16.31
2024-04-13T08:17:41.501Z,16.22
2024-04-13T08:20:13.613Z,16.40
2024-04-13T08:22:41.370Z,16.33
2024-04-13T08:25:07.972Z,16.43
2024-04-13T08:27:36.374Z,16.90
2024-04-13T08:30:03.980Z,17.06
2024-04-13T08:32:30.656Z,17.39
2024-04-13T08:34:57.416Z,17.36
2024-04-13T08:37:24.167Z,17.33
2024-04-13T08:39:50.956Z,17.51
2024-04-13T08:42:23.341Z,17.28
2024-04-13T08:44:53.421Z,17.44
2024-04-13T08:47:20.360Z,17.36
2024-04-13T08:49:48.797Z,17.76
2024-04-13T08:52:16.912Z,17.78
2024-04-13T08:54:43.525Z,18.21
2024-04-13T08:57:11.543Z,18.17
2024-04-13T08:59:40.091Z,18.04
2024-04-13T09:02:10.975Z,17.82
2024-04-13T09:04:38.896Z,18.06
2024-04-13T09:07:05.636Z,18.01
2024-04-13T09:09:35.749Z,18.43
2024-04-13T09:12:02.523Z,18.68
2024-04-13T09:14:29.379Z,18.73
2024-04-13T09:16:56.088Z,19.05
2024-04-13T09:19:22.944Z,19.10
2024-04-13T09:21:50.889Z,18.87
2024-04-13T09:24:17.597Z,18.55
2024-04-13T09:26:47.581Z,18.88
2024-04-13T09:29:25.020Z,19.37
2024-04-13T09:31:51.669Z,19.55
2024-04-13T09:34:18.946Z,20.02
2024-04-13T09:36:45.938Z,19.41
2024-04-13T09:39:23.010Z,19.37
2024-04-13T09:41:50.328Z,19.25
2024-04-13T09:44:27.133Z,19.33
2024-04-13T09:46:53.814Z,18.94
2024-04-13T09:49:20.565Z,19.18
2024-04-13T09:51:50.426Z,19.38
2024-04-13T09:54:17.477Z,19.46
2024-04-13T09:56:47.506Z,19.41
2024-04-13T09:59:14.844Z,19.96
2024-04-13T10:01:41.922Z,20.28
2024-04-13T10:04:08.996Z,19.96
2024-04-13T10:06:38.759Z,19.69
2024-04-13T10:09:06.921Z,19.25
2024-04-13T10:11:36.048Z,19.55
2024-04-13T10:14:02.808Z,19.35
2024-04-13T10:16:29.643Z,20.00
2024-04-13T10:18:56.519Z,19.57
2024-04-13T10:21:23.592Z,19.92
2024-04-13T10:23:50.215Z,19.52
2024-04-13T10:26:27.261Z,19.83
2024-04-13T10:29:01.032Z,20.34
2024-04-13T10:31:29.005Z,19.99
2024-04-13T10:33:56.451Z,20.14
2024-04-13T10:36:31.138Z,21.04
2024-04-13T10:38:59.190Z,20.58
2024-04-13T10:41:34.913Z,21.01
2024-04-13T10:44:03.494Z,20.78
2024-04-13T10:46:30.263Z,20.70
2024-04-13T10:48:57.284Z,20.46
2024-04-13T10:51:24.214Z,20.51
2024-04-13T10:53:51.377Z,21.18
2024-04-13T10:56:18.375Z,21.14
2024-04-13T10:58:45.140Z,21.30
2024-04-13T11:01:13.134Z,21.51
2024-04-13T11:03:40.973Z,21.55
2024-04-13T11:06:08.919Z,21.71
2024-04-13T11:08:35.970Z,21.98
2024-04-13T11:11:03.164Z,21.93
2024-04-13T11:13:31.789Z,22.13
2024-04-13T11:15:58.615Z,22.22
2024-04-13T11:18:25.528Z,22.48
2024-04-13T11:21:02.670Z,22.50
2024-04-13T11:23:29.471Z,22.01
2024-04-13T11:25:57.264Z,22.38
2024-04-13T11:28:23.994Z,22.17
2024-04-13T11:30:52.949Z,22.25
2024-04-13T11:33:21.232Z,22.21
2024-04-13T11:35:58.482Z,22.92
2024-04-13T11:38:25.448Z,22.48
2024-04-13T11:40:52.211Z,22.87
2024-04-13T11:43:18.960Z,22.32
2024-04-13T11:45:46.214Z,22.67
2024-04-13T11:48:13.529Z,23.07
2024-04-13T11:50:40.295Z,22.66
2024-04-13T11:53:07.289Z,22.91
2024-04-13T11:55:38.047Z,22.62
2024-04-13T11:58:06.008Z,22.74
2024-04-13T12:00:32.670Z,22.94
2024-04-13T12:02:59.783Z,23.32
2024-04-13T12:05:27.298Z,23.31
2024-04-13T12:07:54.023Z,23.02
2024-04-13T12:10:20.847Z,23.19
2024-04-13T12:12:47.721Z,22.77
2024-04-13T12:15:14.509Z,23.00
2024-04-13T12:17:41.253Z,23.40
2024-04-13T12:20:08.177Z,23.02
2024-04-13T12:22:34.869Z,22.93
2024-04-13T12:25:01.676Z,22.75
2024-04-13T12:27:28.781Z,23.07
2024-04-13T12:29:58.135Z,23.58
2024-04-13T12:32:27.128Z,23.22
2024-04-13T12:34:53.722Z,23.04
2024-04-13T12:37:20.428Z,23.15
2024-04-13T12:39:47.146Z,23.84
2024-04-13T12:42:13.992Z,23.47
2024-04-13T12:44:40.883Z,23.22
2024-04-13T12:47:11.957Z,23.77
2024-04-13T12:49:39.253Z,24.17
2024-04-13T12:52:06.134Z,24.07
2024-04-13T12:54:32.850Z,24.31
2024-04-13T12:56:59.664Z,23.59
2024-04-13T12:59:26.291Z,23.59
2024-04-13T13:01:52.964Z,23.52
2024-04-13T13:04:19.604Z,23.77
2024-04-13T13:06:46.304Z,23.64
2024-04-13T13:09:12.954Z,24.32
2024-04-13T13:11:42.334Z,24.25
2024-04-13T13:14:10.529Z,24.10
2024-04-13T13:16:37.661Z,23.89
2024-04-13T13:19:04.488Z,24.41
2024-04-13T13:21:31.197Z,23.95
2024-04-13T13:23:57.846Z,24.11
2024-04-13T13:26:24.518Z,25.19
2024-04-13T13:28:53.155Z,24.31
2024-04-13T13:31:21.236Z,24.35
2024-04-13T13:33:47.892Z,24.41
2024-04-13T13:36:14.698Z,24.31
2024-04-13T13:38:41.908Z,24.15
2024-04-13T13:41:08.592Z,24.67
2024-04-13T13:43:35.320Z,24.58
2024-04-13T13:46:02.135Z,24.39
2024-04-13T13:48:28.989Z,24.19
2024-04-13T13:50:55.855Z,24.13
2024-04-13T13:53:22.721Z,24.01
2024-04-13T13:55:49.359Z,23.32
2024-04-13T13:58:15.985Z,24.08
2024-04-13T14:00:42.786Z,23.46
2024-04-13T14:03:10.017Z,23.26
2024-04-13T14:05:36.828Z,23.31
2024-04-13T14:08:03.616Z,23.45
2024-04-13T14:10:30.617Z,23.14
2024-04-13T14:12:57.371Z,23.10
2024-04-13T14:15:24.132Z,23.51
2024-04-13T14:17:51.003Z,23.53
2024-04-13T14:20:17.811Z,23.63
2024-04-13T14:22:44.433Z,23.70
2024-04-13T14:25:11.057Z,24.02
2024-04-13T14:27:37.824Z,23.56
2024-04-13T14:30:04.827Z,23.37
2024-04-13T14:32:31.561Z,23.56
2024-04-13T14:34:58.280Z,23.61
2024-04-13T14:37:24.985Z,22.97
2024-04-13T14:39:52.201Z,23.33
2024-04-13T14:42:20.012Z,22.99
2024-04-13T14:44:46.759Z,22.81
2024-04-13T14:47:14.111Z,22.98
2024-04-13T14:49:41.221Z,23.57
2024-04-13T14:52:07.903Z,24.26
2024-04-13T14:54:34.747Z,23.64
2024-04-13T14:57:01.575Z,23.61
2024-04-13T14:59:28.298Z,23.27
2024-04-13T15:01:55.052Z,23.13
2024-04-13T15:04:21.887Z,23.18
2024-04-13T15:06:48.809Z,23.15
2024-04-13T15:09:16.077Z,23.82
2024-04-13T15:11:42.920Z,23.80
2024-04-13T15:14:09.594Z,23.83
2024-04-13T15:16:36.248Z,24.23
2024-04-13T15:19:03.055Z,24.11
2024-04-13T15:21:29.850Z,24.02
2024-04-13T15:23:56.931Z,23.46
2024-04-13T15:26:26.415Z,23.64
2024-04-13T15:28:55.455Z,23.27
2024-04-13T15:31:22.283Z,23.27
2024-04-13T15:33:49.227Z,22.59
2024-04-13T15:36:16.675Z,22.17
2024-04-13T15:38:44.054Z,22.91
2024-04-13T15:41:11.165Z,22.97
2024-04-13T15:43:37.837Z,22.33
2024-04-13T15:46:04.655Z,22.06
2024-04-13T15:48:31.459Z,22.03
2024-04-13T15:51:02.357Z,21.88
2024-04-13T15:53:29.001Z,22.02
2024-04-13T15:55:55.697Z,21.96
2024-04-13T15:58:22.924Z,22.10
2024-04-13T16:00:49.781Z,22.15
2024-04-13T16:03:16.708Z,22.10
2024-04-13T16:05:43.530Z,22.10
2024-04-13T16:08:10.394Z,22.23
2024-04-13T16:10:37.089Z,21.87
2024-04-13T16:13:03.801Z,21.72
2024-04-13T16:15:30.558Z,21.46
2024-04-13T16:17:57.260Z,21.52
2024-04-13T16:20:23.876Z,21.41
2024-04-13T16:22:50.723Z,21.50
2024-04-13T16:25:17.856Z,21.33
2024-04-13T16:27:44.576Z,21.39
2024-04-13T16:30:11.366Z,21.76
2024-04-13T16:32:38.722Z,21.53
2024-04-13T16:35:06.248Z,21.48
2024-04-13T16:37:32.950Z,21.33
2024-04-13T16:39:59.901Z,21.51
2024-04-13T16:42:27.670Z,21.62
2024-04-13T16:44:54.388Z,21.24
2024-04-13T16:47:21.347Z,21.14
2024-04-13T16:49:48.093Z,21.26
2024-04-13T16:52:14.818Z,21.06
2024-04-13T16:54:41.573Z,20.97
2024-04-13T16:57:08.303Z,20.83
2024-04-13T16:59:34.932Z,21.01
2024-04-13T17:02:01.758Z,20.94
2024-04-13T17:04:28.939Z,20.47
2024-04-13T17:06:55.731Z,20.59
2024-04-13T17:09:26.278Z,20.55
2024-04-13T17:11:53.450Z,20.64
2024-04-13T17:14:20.129Z,20.52
2024-04-13T17:16:46.908Z,20.50
2024-04-13T17:19:13.719Z,20.41
2024-04-13T17:21:40.374Z,20.51
2024-04-13T17:24:07.335Z,20.29
2024-04-13T17:26:33.976Z,20.24
2024-04-13T17:29:00.656Z,20.13
2024-04-13T17:31:27.356Z,19.99
2024-04-13T17:33:54.113Z,19.90
2024-04-13T17:36:21.797Z,19.76
2024-04-13T17:38:49.174Z,19.26
2024-04-13T17:41:16.271Z,19.25
2024-04-13T17:43:42.994Z,19.23
2024-04-13T17:46:09.638Z,19.20
2024-04-13T17:48:36.539Z,19.11
2024-04-13T17:51:03.490Z,19.02
2024-04-13T17:53:30.181Z,18.85
2024-04-13T17:55:56.809Z,18.82
2024-04-13T17:58:23.555Z,18.60
2024-04-13T18:00:50.246Z,18.68
2024-04-13T18:03:16.993Z,18.48
2024-04-13T18:05:43.641Z,18.38
2024-04-13T18:08:11.580Z,18.32
2024-04-13T18:10:41.006Z,18.30
2024-04-13T18:13:07.802Z,18.31
2024-04-13T18:15:34.636Z,18.19
2024-04-13T18:18:01.401Z,18.13
2024-04-13T18:20:28.167Z,18.01
2024-04-13T18:22:54.841Z,18.01
2024-04-13T18:25:21.516Z,17.82
2024-04-13T18:27:48.253Z,17.61
2024-04-13T18:30:15.261Z,17.62
2024-04-13T18:32:42.438Z,17.51
2024-04-13T18:35:09.196Z,17.40
2024-04-13T18:37:35.949Z,17.29
2024-04-13T18:40:02.676Z,17.22
2024-04-13T18:42:29.568Z,17.28
2024-04-13T18:44:56.282Z,17.28
2024-04-13T18:47:23.448Z,17.28
2024-04-13T18:49:54.368Z,17.32
2024-04-13T18:52:22.086Z,17.35
2024-04-13T18:54:49.777Z,17.34
2024-04-13T18:57:16.539Z,17.30
2024-04-13T18:59:43.929Z,17.31
2024-04-13T19:02:10.994Z,17.23
2024-04-13T19:04:37.819Z,17.22
2024-04-13T19:07:04.883Z,17.18
2024-04-13T19:09:31.697Z,17.21
2024-04-13T19:11:58.512Z,17.15
2024-04-13T19:14:25.227Z,17.04
2024-04-13T19:16:52.477Z,16.96
2024-04-13T19:19:19.928Z,16.89
2024-04-13T19:21:46.995Z,16.80
2024-04-13T19:24:14.293Z,16.68
2024-04-13T19:26:42.010Z,16.61
2024-04-13T19:29:09.198Z,16.49
2024-04-13T19:31:36.153Z,16.37
2024-04-13T19:34:04.765Z,16.29
2024-04-13T19:36:32.693Z,16.19
2024-04-13T19:38:59.539Z,16.17
2024-04-13T19:41:26.179Z,16.11
2024-04-13T19:43:53.559Z,16.09
2024-04-13T19:46:20.213Z,15.97
2024-04-13T19:48:46.958Z,15.91
2024-04-13T19:51:13.783Z,15.85
2024-04-13T19:53:44.775Z,15.79
2024-04-13T19:56:11.416Z,15.71
2024-04-13T19:58:38.379Z,15.70
2024-04-13T20:01:06.906Z,15.61
2024-04-13T20:03:33.895Z,15.57
2024-04-13T20:06:01.011Z,15.51
2024-04-13T20:08:27.783Z,15.48
2024-04-13T20:11:08.374Z,15.34
2024-04-13T20:13:35.090Z,15.42
2024-04-13T20:16:20.518Z,15.43
2024-04-13T20:18:47.454Z,15.44
2024-04-13T20:21:14.135Z,15.44
2024-04-13T20:23:41.008Z,15.43
2024-04-13T20:26:07.812Z,15.44
2024-04-13T20:28:34.713Z,15.36
2024-04-13T20:31:01.426Z,15.33
2024-04-13T20:33:28.151Z,15.28
2024-04-13T20:35:54.890Z,15.18
2024-04-13T20:38:21.930Z,15.20
2024-04-13T20:40:48.639Z,15.10
2024-04-13T20:43:15.380Z,14.98
2024-04-13T20:45:42.224Z,14.95
2024-04-13T20:48:09.814Z,14.84
2024-04-13T20:50:39.109Z,14.76
2024-04-13T20:53:08.053Z,14.73
2024-04-13T20:55:34.760Z,14.63
2024-04-13T20:58:01.455Z,14.62
2024-04-13T21:00:28.283Z,14.45
2024-04-13T21:02:54.940Z,14.53
2024-04-13T21:05:22.007Z,14.42
2024-04-13T21:07:48.697Z,14.32
2024-04-13T21:10:15.712Z,14.33
2024-04-13T21:12:42.561Z,14.31
2024-04-13T21:15:09.374Z,14.26
2024-04-13T21:17:36.010Z,14.24
2024-04-13T21:20:02.821Z,14.23
2024-04-13T21:22:29.617Z,14.26
2024-04-13T21:24:56.988Z,14.23
2024-04-13T21:27:27.008Z,14.21
2024-04-13T21:29:53.745Z,14.16
2024-04-13T21:32:20.757Z,14.11
2024-04-13T21:34:47.668Z,14.09
2024-04-13T21:37:14.314Z,14.04
2024-04-13T21:39:40.987Z,14.00
2024-04-13T21:42:07.681Z,14.07
2024-04-13T21:44:34.684Z,14.05
2024-04-13T21:47:01.505Z,14.01
2024-04-13T21:49:28.295Z,14.01
2024-04-13T21:51:55.071Z,14.01
2024-04-13T21:54:21.838Z,14.04
2024-04-13T21:56:48.537Z,13.99
2024-04-13T21:59:15.167Z,13.97
2024-04-13T22:01:42.478Z,13.87
2024-04-13T22:04:09.330Z,13.85
2024-04-13T22:06:36.213Z,13.85
2024-04-13T22:09:05.531Z,13.84
2024-04-13T22:11:32.247Z,13.82
2024-04-13T22:13:58.931Z,13.88
2024-04-13T22:16:27.699Z,13.79
2024-04-13T22:18:54.500Z,13.82
2024-04-13T22:21:21.312Z,13.82
2024-04-13T22:23:48.113Z,13.75
2024-04-13T22:26:14.804Z,13.74
2024-04-13T22:28:41.511Z,13.71
2024-04-13T22:31:08.312Z,13.73
2024-04-13T22:33:35.017Z,13.70
2024-04-13T22:36:01.785Z,13.70
2024-04-13T22:38:29.226Z,13.66
2024-04-13T22:40:55.882Z,13.63
2024-04-13T22:43:24.338Z,13.54
2024-04-13T22:45:51.126Z,13.57
2024-04-13T22:48:18.156Z,13.56
2024-04-13T22:50:45.264Z,13.53
2024-04-13T22:53:12.014Z,13.53
2024-04-13T22:55:38.688Z,13.47
2024-04-13T22:58:05.348Z,13.48
2024-04-13T23:00:32.002Z,13.49
2024-04-13T23:02:58.682Z,13.48
2024-04-13T23:05:25.369Z,13.46
2024-04-13T23:07:52.028Z,13.46
2024-04-13T23:10:18.649Z,13.41
2024-04-13T23:12:45.464Z,13.43
2024-04-13T23:15:12.121Z,13.34
2024-04-13T23:17:38.853Z,13.31
2024-04-13T23:20:06.939Z,13.31
2024-04-13T23:22:33.607Z,13.28
2024-04-13T23:25:00.402Z,13.29
2024-04-13T23:27:29.319Z,13.26
2024-04-13T23:29:56.192Z,13.24
2024-04-13T23:32:23.037Z,13.27
2024-04-13T23:34:49.699Z,13.34
2024-04-13T23:37:16.363Z,13.35
2024-04-13T23:39:43.249Z,13.36
2024-04-13T23:42:09.873Z,13.35
2024-04-13T23:44:36.524Z,13.39
2024-04-13T23:47:03.320Z,13.45
2024-04-13T23:49:30.036Z,13.48
2024-04-13T23:51:56.756Z,13.48
2024-04-13T23:54:23.424Z,13.50
2024-04-13T23:56:50.156Z,13.56
2024-04-13T23:59:16.793Z,13.59
